createdAt,value
2018-03-14T00:01:49.107Z,3.80
2018-03-14T00:04:16.660Z,4.40
2018-03-14T00:06:44.200Z,4.10
2018-03-14T00:09:12.551Z,4.13
2018-03-14T00:11:40.092Z,4.27
2018-03-14T00:14:07.641Z,4.37
2018-03-14T00:16:35.217Z,4.30
2018-03-14T00:19:02.782Z,4.20
2018-03-14T00:21:30.432Z,4.17
2018-03-14T00:23:58.556Z,4.13
2018-03-14T00:26:26.206Z,3.63
2018-03-14T00:28:53.804Z,3.20
2018-03-14T00:31:21.504Z,3.70
2018-03-14T00:33:49.241Z,3.30
2018-03-14T00:36:16.945Z,3.83
2018-03-14T00:38:45.397Z,4.03
2018-03-14T00:41:25.064Z,3.72
2018-03-14T00:43:52.742Z,3.70
2018-03-14T00:46:20.299Z,4.30
2018-03-14T00:48:48.627Z,3.57
2018-03-14T00:51:16.423Z,4.10
2018-03-14T00:53:43.991Z,4.00
2018-03-14T00:56:11.532Z,4.15
2018-03-14T00:58:39.111Z,4.20
2018-03-14T01:01:07.423Z,4.87
2018-03-14T01:03:34.967Z,5.27
2018-03-14T01:06:04.023Z,4.97
2018-03-14T01:08:31.576Z,5.33
2018-03-14T01:10:59.123Z,4.97
2018-03-14T01:13:26.711Z,4.93
2018-03-14T01:15:54.263Z,5.30
2018-03-14T01:18:21.808Z,4.20
2018-03-14T01:20:49.395Z,5.03
2018-03-14T01:23:16.943Z,4.90
2018-03-14T01:25:44.484Z,5.05
2018-03-14T01:28:12.125Z,5.03
2018-03-14T01:30:39.679Z,4.93
2018-03-14T01:33:07.231Z,5.57
2018-03-14T01:35:34.825Z,5.40
2018-03-14T01:38:02.392Z,6.00
2018-03-14T01:40:29.942Z,6.00
2018-03-14T01:42:57.516Z,6.60
2018-03-14T01:45:25.072Z,7.03
2018-03-14T01:47:52.903Z,6.93
2018-03-14T01:50:21.651Z,7.32
2018-03-14T01:52:49.199Z,7.50
2018-03-14T01:55:16.760Z,6.50
2018-03-14T01:57:44.343Z,6.90
2018-03-14T02:00:11.892Z,6.18
2018-03-14T02:02:39.444Z,6.03
2018-03-14T02:05:07.036Z,5.77
2018-03-14T02:07:35.339Z,6.10
2018-03-14T02:10:02.888Z,6.70
2018-03-14T02:12:30.540Z,6.78
2018-03-14T02:14:58.083Z,7.60
2018-03-14T02:17:26.404Z,7.10
2018-03-14T02:19:53.978Z,7.87
2018-03-14T02:22:21.537Z,6.60
2018-03-14T02:24:49.086Z,7.50
2018-03-14T02:27:17.460Z,8.20
2018-03-14T02:29:45.031Z,8.00
2018-03-14T02:32:13.487Z,7.47
2018-03-14T02:34:41.720Z,7.00
2018-03-14T02:37:09.280Z,7.70
2018-03-14T02:39:36.823Z,7.40
2018-03-14T02:42:04.428Z,6.87
2018-03-14T02:44:32.747Z,6.67
2018-03-14T02:47:00.304Z,7.53
2018-03-14T02:49:28.095Z,8.90
2018-03-14T02:51:55.627Z,6.83
2018-03-14T02:54:23.151Z,6.83
2018-03-14T02:56:51.015Z,6.20
2018-03-14T02:59:18.539Z,7.37
2018-03-14T03:01:46.070Z,7.23
2018-03-14T03:04:14.631Z,6.50
2018-03-14T03:06:42.923Z,7.93
2018-03-14T03:09:10.448Z,7.15
2018-03-14T03:11:38.028Z,7.47
2018-03-14T03:14:05.560Z,8.27
2018-03-14T03:16:33.090Z,8.40
2018-03-14T03:19:01.176Z,7.27
2018-03-14T03:21:28.711Z,8.93
2018-03-14T03:23:56.261Z,9.00
2018-03-14T03:26:23.831Z,8.53
2018-03-14T03:28:51.376Z,10.40
2018-03-14T03:31:18.912Z,9.00
2018-03-14T03:33:47.240Z,9.15
2018-03-14T03:36:16.491Z,9.65
2018-03-14T03:38:44.786Z,9.37
2018-03-14T03:41:12.676Z,8.63
2018-03-14T03:43:40.220Z,8.30
2018-03-14T03:46:07.752Z,9.20
2018-03-14T03:48:35.323Z,9.10
2018-03-14T03:51:04.022Z,9.40
2018-03-14T03:53:31.567Z,10.27
2018-03-14T03:55:59.148Z,10.23
2018-03-14T03:58:26.690Z,11.30
2018-03-14T04:00:54.995Z,10.50
2018-03-14T04:03:23.100Z,10.20
2018-03-14T04:05:50.639Z,11.13
2018-03-14T04:08:18.175Z,11.27
2018-03-14T04:10:45.751Z,11.07
2018-03-14T04:13:24.486Z,9.75
2018-03-14T04:18:25.123Z,9.57
2018-03-14T04:20:52.654Z,9.57
2018-03-14T04:23:20.184Z,10.85
2018-03-14T04:25:47.760Z,11.33
2018-03-14T04:28:16.393Z,10.60
2018-03-14T04:30:43.935Z,10.77
2018-03-14T04:33:11.522Z,11.95
2018-03-14T04:35:39.088Z,11.27
2018-03-14T04:38:06.625Z,13.00
2018-03-14T04:40:34.252Z,10.70
2018-03-14T04:43:01.781Z,12.10
2018-03-14T04:45:29.310Z,11.70
2018-03-14T04:47:56.876Z,11.20
2018-03-14T04:50:24.421Z,10.82
2018-03-14T04:52:52.215Z,10.60
2018-03-14T04:55:25.367Z,12.45
2018-03-14T04:57:52.907Z,11.73
2018-03-14T05:00:21.219Z,11.20
2018-03-14T05:02:49.288Z,12.07
2018-03-14T05:05:16.820Z,12.60
2018-03-14T05:07:44.372Z,12.93
2018-03-14T05:10:13.628Z,13.50
2018-03-14T05:12:41.169Z,13.90
2018-03-14T05:15:08.704Z,12.50
2018-03-14T05:17:37.075Z,12.03
2018-03-14T05:20:05.375Z,12.63
2018-03-14T05:22:32.913Z,11.82
2018-03-14T05:25:01.755Z,12.93
2018-03-14T05:27:29.299Z,13.47
2018-03-14T05:29:56.841Z,11.67
2018-03-14T05:32:24.427Z,12.07
2018-03-14T05:34:52.107Z,12.03
2018-03-14T05:37:19.688Z,12.45
2018-03-14T05:39:47.268Z,11.50
2018-03-14T05:42:16.482Z,13.15
2018-03-14T05:44:44.016Z,12.80
2018-03-14T05:47:11.952Z,13.90
2018-03-14T05:49:39.537Z,14.70
2018-03-14T05:52:07.076Z,14.20
2018-03-14T05:54:35.239Z,13.97
2018-03-14T05:57:02.779Z,14.00
2018-03-14T05:59:30.411Z,14.13
2018-03-14T06:01:57.988Z,12.57
2018-03-14T06:04:25.557Z,12.43
2018-03-14T06:06:53.091Z,11.70
2018-03-14T06:09:21.459Z,11.10
2018-03-14T06:11:49.000Z,12.13
2018-03-14T06:14:16.535Z,12.10
2018-03-14T06:16:44.106Z,11.77
2018-03-14T06:19:11.639Z,11.70
2018-03-14T06:21:39.191Z,12.23
2018-03-14T06:24:06.747Z,7.83
2018-03-14T06:26:34.274Z,8.90
2018-03-14T06:29:01.800Z,9.07
2018-03-14T06:31:29.819Z,8.52
2018-03-14T06:33:57.368Z,7.47
2018-03-14T06:36:25.659Z,7.50
2018-03-14T06:38:53.388Z,8.00
2018-03-14T06:41:20.923Z,6.97
2018-03-14T06:43:48.455Z,8.15
2018-03-14T06:46:16.495Z,8.00
2018-03-14T06:48:44.796Z,7.00
2018-03-14T06:51:12.327Z,7.80
2018-03-14T06:53:40.876Z,8.47
2018-03-14T06:56:09.160Z,6.80
2018-03-14T06:58:48.495Z,6.30
2018-03-14T07:01:28.611Z,7.07
2018-03-14T07:04:08.067Z,7.40
2018-03-14T07:06:35.604Z,7.33
2018-03-14T07:09:03.169Z,7.67
2018-03-14T07:11:31.083Z,8.30
2018-03-14T07:13:58.628Z,8.70
2018-03-14T07:16:26.173Z,8.57
2018-03-14T07:18:53.752Z,9.90
2018-03-14T07:21:21.280Z,8.37
2018-03-14T07:23:48.809Z,9.10
2018-03-14T07:26:16.476Z,9.40
2018-03-14T07:28:44.012Z,9.23
2018-03-14T07:31:11.557Z,9.35
2018-03-14T07:33:39.506Z,9.87
2018-03-14T07:36:07.068Z,10.10
2018-03-14T07:38:35.367Z,9.77
2018-03-14T07:41:02.964Z,9.67
2018-03-14T07:43:31.273Z,9.10
2018-03-14T07:45:58.820Z,8.57
2018-03-14T07:48:26.392Z,8.40
2018-03-14T07:50:54.855Z,8.10
2018-03-14T07:53:22.399Z,7.83
2018-03-14T07:55:51.193Z,9.73
2018-03-14T07:58:19.213Z,8.43
2018-03-14T08:00:46.747Z,7.83
2018-03-14T08:03:16.292Z,9.10
2018-03-14T08:05:43.891Z,8.90
2018-03-14T08:08:11.402Z,7.97
2018-03-14T08:10:39.000Z,8.57
2018-03-14T08:13:07.318Z,9.20
2018-03-14T08:15:34.849Z,8.80
2018-03-14T08:18:03.631Z,8.98
2018-03-14T08:20:31.172Z,10.50
2018-03-14T08:22:58.719Z,10.63
2018-03-14T08:25:26.268Z,9.90
2018-03-14T08:27:53.800Z,11.47
2018-03-14T08:30:21.337Z,10.83
2018-03-14T08:32:49.663Z,10.63
2018-03-14T08:35:17.208Z,12.10
2018-03-14T08:37:44.743Z,10.70
2018-03-14T08:40:12.722Z,11.30
2018-03-14T08:42:40.211Z,12.10
2018-03-14T08:45:07.751Z,11.77
2018-03-14T08:47:35.312Z,12.00
2018-03-14T08:50:02.892Z,12.43
2018-03-14T08:52:30.429Z,12.25
2018-03-14T08:54:58.043Z,10.87
2018-03-14T08:57:26.344Z,12.53
2018-03-14T08:59:54.407Z,11.87
2018-03-14T09:02:22.451Z,11.27
2018-03-14T09:04:50.005Z,12.40
2018-03-14T09:07:17.552Z,11.23
2018-03-14T09:09:45.193Z,11.47
2018-03-14T09:12:13.656Z,13.00
2018-03-14T09:14:41.207Z,13.67
2018-03-14T09:17:08.781Z,13.10
2018-03-14T09:19:36.319Z,11.80
2018-03-14T09:22:03.884Z,11.80
2018-03-14T09:24:31.804Z,11.80
2018-03-14T09:26:59.341Z,12.80
2018-03-14T09:29:26.899Z,12.03
2018-03-14T09:31:54.481Z,12.13
2018-03-14T09:34:22.024Z,13.90
2018-03-14T09:36:49.745Z,12.70
2018-03-14T09:39:18.167Z,14.27
2018-03-14T09:41:45.720Z,12.73
2018-03-14T09:44:15.329Z,11.85
2018-03-14T09:46:43.218Z,11.90
2018-03-14T09:49:10.768Z,12.80
2018-03-14T09:51:38.308Z,14.00
2018-03-14T09:54:05.896Z,11.13
2018-03-14T09:56:33.437Z,11.38
2018-03-14T09:59:00.979Z,11.83
2018-03-14T10:01:29.184Z,12.93
2018-03-14T10:03:57.489Z,12.00
2018-03-14T10:06:25.040Z,13.07
2018-03-14T10:08:52.940Z,12.90
2018-03-14T10:11:21.239Z,11.57
2018-03-14T10:13:48.795Z,11.97
2018-03-14T10:16:16.448Z,11.20
2018-03-14T10:18:44.751Z,10.30
2018-03-14T10:21:14.015Z,11.93
2018-03-14T10:23:42.364Z,10.83
2018-03-14T10:26:09.940Z,11.20
2018-03-14T10:28:37.472Z,10.20
2018-03-14T10:31:05.328Z,11.60
2018-03-14T10:33:32.855Z,9.43
2018-03-14T10:36:00.392Z,10.50
2018-03-14T10:38:27.988Z,9.93
2018-03-14T10:40:55.531Z,10.20
2018-03-14T10:43:23.090Z,9.60
2018-03-14T10:45:51.418Z,11.30
2018-03-14T10:48:18.953Z,11.63
2018-03-14T10:50:46.484Z,12.10
2018-03-14T10:53:24.776Z,10.43
2018-03-14T10:58:26.512Z,11.80
2018-03-14T11:01:11.796Z,11.07
2018-03-14T11:03:44.705Z,11.60
2018-03-14T11:06:12.270Z,11.13
2018-03-14T11:08:39.804Z,12.17
2018-03-14T11:11:08.028Z,12.30
2018-03-14T11:13:36.324Z,11.77
2018-03-14T11:16:03.858Z,11.90
2018-03-14T11:18:31.443Z,14.87
2018-03-14T11:20:58.979Z,12.80
2018-03-14T11:23:27.288Z,12.18
2018-03-14T11:25:54.854Z,11.60
2018-03-14T11:28:22.396Z,11.77
2018-03-14T11:30:49.931Z,12.73
2018-03-14T11:33:18.538Z,13.70
2018-03-14T11:35:46.086Z,13.27
2018-03-14T11:38:15.485Z,12.50
2018-03-14T11:40:43.052Z,11.97
2018-03-14T11:43:10.598Z,11.93
2018-03-14T11:45:38.905Z,12.00
2018-03-14T11:48:06.479Z,10.68
2018-03-14T11:50:34.015Z,11.93
2018-03-14T11:53:01.560Z,11.13
2018-03-14T11:55:30.003Z,11.90
2018-03-14T11:57:57.536Z,10.40
2018-03-14T12:00:25.073Z,11.50
2018-03-14T12:02:52.648Z,10.60
2018-03-14T12:05:20.324Z,11.88
2018-03-14T12:07:47.880Z,11.63
2018-03-14T12:10:16.563Z,11.45
2018-03-14T12:12:44.108Z,11.80
2018-03-14T12:15:12.186Z,11.53
2018-03-14T12:17:40.244Z,11.57
2018-03-14T12:20:08.560Z,11.70
2018-03-14T12:22:36.112Z,11.20
2018-03-14T12:25:03.693Z,11.10
2018-03-14T12:27:31.231Z,11.90
2018-03-14T12:29:58.805Z,8.90
2018-03-14T12:32:26.376Z,8.53
2018-03-14T12:34:53.943Z,8.67
2018-03-14T12:37:21.493Z,10.60
2018-03-14T12:39:49.368Z,10.20
2018-03-14T12:42:16.929Z,11.20
2018-03-14T12:44:44.503Z,10.23
2018-03-14T12:47:12.098Z,10.30
2018-03-14T12:49:43.919Z,9.70
2018-03-14T12:52:11.470Z,11.30
2018-03-14T12:54:39.099Z,11.40
2018-03-14T12:57:06.660Z,11.57
2018-03-14T12:59:34.940Z,11.30
2018-03-14T13:02:03.045Z,11.57
2018-03-14T13:04:30.605Z,10.65
2018-03-14T13:06:58.305Z,11.50
2018-03-14T13:09:25.914Z,10.37
2018-03-14T13:11:53.498Z,10.95
2018-03-14T13:14:21.072Z,9.88
2018-03-14T13:16:49.412Z,11.43
2018-03-14T13:19:17.025Z,11.60
2018-03-14T13:21:45.599Z,10.97
2018-03-14T13:24:24.718Z,10.52
2018-03-14T13:29:39.497Z,10.00
2018-03-14T13:32:07.051Z,9.77
2018-03-14T13:34:34.617Z,11.65
2018-03-14T13:37:02.205Z,10.57
2018-03-14T13:39:29.767Z,11.30
2018-03-14T13:41:57.312Z,10.90
2018-03-14T13:44:25.725Z,10.40
2018-03-14T13:46:53.307Z,11.83
2018-03-14T13:49:20.864Z,10.38
2018-03-14T13:51:48.472Z,10.73
2018-03-14T13:54:16.473Z,10.40
2018-03-14T13:56:44.060Z,11.43
2018-03-14T13:59:11.649Z,10.47
2018-03-14T14:01:39.220Z,13.27
2018-03-14T14:04:08.234Z,10.80
2018-03-14T14:06:37.097Z,12.57
2018-03-14T14:09:05.782Z,11.83
2018-03-14T14:11:33.344Z,11.38
2018-03-14T14:14:01.689Z,12.57
2018-03-14T14:16:29.501Z,11.65
2018-03-14T14:18:59.420Z,12.63
2018-03-14T14:21:27.759Z,11.20
2018-03-14T14:23:55.304Z,12.70
2018-03-14T14:26:22.865Z,10.40
2018-03-14T14:28:50.952Z,12.02
2018-03-14T14:31:18.597Z,12.95
2018-03-14T14:33:46.153Z,12.83
2018-03-14T14:36:16.311Z,12.88
2018-03-14T14:38:43.914Z,12.33
2018-03-14T14:41:11.487Z,12.00
2018-03-14T14:43:39.999Z,11.23
2018-03-14T14:46:07.564Z,11.18
2018-03-14T14:48:35.133Z,12.33
2018-03-14T14:51:03.057Z,11.63
2018-03-14T14:53:30.608Z,11.60
2018-03-14T14:55:58.169Z,11.40
2018-03-14T14:58:25.752Z,12.30
2018-03-14T15:00:53.308Z,11.40
2018-03-14T15:03:20.875Z,11.88
2018-03-14T15:05:50.534Z,10.63
2018-03-14T15:08:18.085Z,11.67
2018-03-14T15:10:46.997Z,11.67
2018-03-14T15:13:25.449Z,11.03
2018-03-14T15:26:30.044Z,11.23
2018-03-14T15:28:57.925Z,11.57
2018-03-14T15:31:25.652Z,11.55
2018-03-14T15:33:54.178Z,11.37
2018-03-14T15:36:22.663Z,10.60
2018-03-14T15:38:50.562Z,10.90
2018-03-14T15:41:18.865Z,10.77
2018-03-14T15:43:46.479Z,10.35
2018-03-14T15:46:15.653Z,9.00
2018-03-14T15:48:44.067Z,11.93
2018-03-14T15:51:12.452Z,11.60
2018-03-14T15:53:40.765Z,11.53
2018-03-14T15:56:08.821Z,12.63
2018-03-14T15:58:37.322Z,12.13
2018-03-14T16:01:07.978Z,11.97
2018-03-14T16:03:39.013Z,12.07
2018-03-14T16:06:07.679Z,12.20
2018-03-14T16:08:38.670Z,12.70
2018-03-14T16:11:07.489Z,11.90
2018-03-14T16:13:35.141Z,11.83
2018-03-14T16:16:03.680Z,11.43
2018-03-14T16:18:31.230Z,11.97
2018-03-14T16:20:58.768Z,12.43
2018-03-14T16:23:26.350Z,11.53
2018-03-14T16:25:53.900Z,11.60
2018-03-14T16:28:21.532Z,11.55
2018-03-14T16:30:49.064Z,11.80
2018-03-14T16:33:16.606Z,12.43
2018-03-14T16:35:44.159Z,11.97
2018-03-14T16:38:12.291Z,12.87
2018-03-14T16:40:39.840Z,12.80
2018-03-14T16:43:07.397Z,12.60
2018-03-14T16:45:35.013Z,12.10
2018-03-14T16:48:02.569Z,12.90
2018-03-14T16:50:30.126Z,13.23
2018-03-14T16:52:57.707Z,13.00
2018-03-14T16:55:25.255Z,13.73
2018-03-14T16:57:52.797Z,12.50
2018-03-14T17:00:20.984Z,13.95
2018-03-14T17:02:48.523Z,14.30
2018-03-14T17:05:16.507Z,14.52
2018-03-14T17:07:44.095Z,14.20
2018-03-14T17:10:11.633Z,13.50
2018-03-14T17:12:39.652Z,13.80
2018-03-14T17:15:07.228Z,14.03
2018-03-14T17:17:34.780Z,15.03
2018-03-14T17:20:02.333Z,16.43
2018-03-14T17:22:30.474Z,15.30
2018-03-14T17:24:58.037Z,17.03
2018-03-14T17:27:25.580Z,16.10
2018-03-14T17:29:53.143Z,18.47
2018-03-14T17:32:20.688Z,17.73
2018-03-14T17:34:49.020Z,19.90
2018-03-14T17:37:17.357Z,18.90
2018-03-14T17:39:44.895Z,16.57
2018-03-14T17:42:12.436Z,17.70
2018-03-14T17:44:40.052Z,18.30
2018-03-14T17:47:07.590Z,17.47
2018-03-14T17:49:35.129Z,18.67
2018-03-14T17:52:03.684Z,18.87
2018-03-14T17:54:32.012Z,19.67
2018-03-14T17:56:59.561Z,19.27
2018-03-14T17:59:27.143Z,19.10
2018-03-14T18:01:54.692Z,19.60
2018-03-14T18:04:22.223Z,19.13
2018-03-14T18:06:49.840Z,17.30
2018-03-14T18:09:17.499Z,16.67
2018-03-14T18:11:45.040Z,17.63
2018-03-14T18:14:14.212Z,19.10
2018-03-14T18:16:41.769Z,19.13
2018-03-14T18:19:09.332Z,19.30
2018-03-14T18:21:36.892Z,19.63
2018-03-14T18:24:04.436Z,20.10
2018-03-14T18:26:32.010Z,20.05
2018-03-14T18:29:00.190Z,20.30
2018-03-14T18:31:27.754Z,20.60
2018-03-14T18:33:55.330Z,20.60
2018-03-14T18:36:22.907Z,19.87
2018-03-14T18:38:50.482Z,22.02
2018-03-14T18:41:18.041Z,23.07
2018-03-14T18:43:45.620Z,22.10
2018-03-14T18:46:15.386Z,22.67
2018-03-14T18:48:42.933Z,22.17
2018-03-14T18:51:10.552Z,23.17
2018-03-14T18:53:38.203Z,20.23
2018-03-14T18:56:05.756Z,22.10
2018-03-14T18:58:34.084Z,21.12
2018-03-14T19:01:01.623Z,18.60
2018-03-14T19:03:29.228Z,18.40
2018-03-14T19:05:56.788Z,20.63
2018-03-14T19:08:24.332Z,18.03
2018-03-14T19:10:51.877Z,19.80
2018-03-14T19:13:19.872Z,20.27
2018-03-14T19:15:47.892Z,21.80
2018-03-14T19:18:17.221Z,21.80
2018-03-14T19:20:44.813Z,23.20
2018-03-14T19:23:12.369Z,21.47
2018-03-14T19:25:39.924Z,21.80
2018-03-14T19:28:07.503Z,21.83
2018-03-14T19:30:35.048Z,22.97
2018-03-14T19:33:02.584Z,22.13
2018-03-14T19:35:30.212Z,23.30
2018-03-14T19:37:57.747Z,22.03
2018-03-14T19:40:25.283Z,22.70
2018-03-14T19:42:52.910Z,22.23
2018-03-14T19:45:20.802Z,21.74
2018-03-14T19:47:48.366Z,22.80
2018-03-14T19:50:17.285Z,23.60
2018-03-14T19:52:44.828Z,22.87
2018-03-14T19:55:12.369Z,23.83
2018-03-14T19:57:40.564Z,22.03
2018-03-14T20:00:08.104Z,23.63
2018-03-14T20:02:35.644Z,25.57
2018-03-14T20:05:03.490Z,22.80
2018-03-14T20:07:31.024Z,23.07
2018-03-14T20:09:58.568Z,24.80
2018-03-14T20:12:26.132Z,22.97
2018-03-14T20:14:53.680Z,24.70
2018-03-14T20:17:21.638Z,24.23
2018-03-14T20:19:49.551Z,24.53
2018-03-14T20:22:17.140Z,23.80
2018-03-14T20:24:44.679Z,25.07
2018-03-14T20:27:12.379Z,25.83
2018-03-14T20:29:39.919Z,25.30
2018-03-14T20:32:07.529Z,25.88
2018-03-14T20:34:35.084Z,26.40
2018-03-14T20:37:02.624Z,24.30
2018-03-14T20:39:30.164Z,25.93
2018-03-14T20:41:58.042Z,23.67
2018-03-14T20:44:25.587Z,27.00
2018-03-14T20:46:53.172Z,25.33
2018-03-14T20:49:20.753Z,26.73
2018-03-14T20:51:48.296Z,25.70
2018-03-14T20:54:17.070Z,26.80
2018-03-14T20:56:44.653Z,25.43
2018-03-14T20:59:12.250Z,26.57
2018-03-14T21:01:39.766Z,28.23
2018-03-14T21:04:08.565Z,26.23
2018-03-14T21:06:36.171Z,28.00
2018-03-14T21:09:04.016Z,26.97
2018-03-14T21:11:31.649Z,27.33
2018-03-14T21:14:00.324Z,29.53
2018-03-14T21:16:27.868Z,28.77
2018-03-14T21:18:55.980Z,29.10
2018-03-14T21:21:23.719Z,27.60
2018-03-14T21:23:51.305Z,28.37
2018-03-14T21:26:18.924Z,30.25
2018-03-14T21:28:47.383Z,31.27
2018-03-14T21:31:16.484Z,29.58
2018-03-14T21:33:44.036Z,29.50
2018-03-14T21:36:12.357Z,29.33
2018-03-14T21:38:46.316Z,28.83
2018-03-14T21:41:16.259Z,31.85
2018-03-14T21:43:45.102Z,30.90
2018-03-14T21:46:13.631Z,29.97
2018-03-14T21:48:41.174Z,31.53
2018-03-14T21:51:08.816Z,32.70
2018-03-14T21:53:36.328Z,31.27
2018-03-14T21:56:03.871Z,30.20
2018-03-14T21:58:31.408Z,31.60
2018-03-14T22:00:59.007Z,29.80
2018-03-14T22:03:26.554Z,30.73
2018-03-14T22:05:54.097Z,30.07
2018-03-14T22:08:22.297Z,31.60
2018-03-14T22:10:50.265Z,29.93
2018-03-14T22:13:17.818Z,32.40
2018-03-14T22:15:45.400Z,29.20
2018-03-14T22:18:24.512Z,31.83
2018-03-14T22:21:32.408Z,30.90
2018-03-14T22:23:59.947Z,31.77
2018-03-14T22:26:27.477Z,32.50
2018-03-14T22:28:55.428Z,33.42
2018-03-14T22:31:22.987Z,30.60
2018-03-14T22:33:50.528Z,32.00
2018-03-14T22:36:19.508Z,30.30
2018-03-14T22:38:47.048Z,30.30
2018-03-14T22:41:17.178Z,31.35
2018-03-14T22:43:44.744Z,29.97
2018-03-14T22:46:12.322Z,31.20
2018-03-14T22:48:39.841Z,31.87
2018-03-14T22:51:07.459Z,32.00
2018-03-14T22:53:35.164Z,29.93
2018-03-14T22:56:03.463Z,32.40
2018-03-14T22:58:31.029Z,31.00
2018-03-14T23:00:58.559Z,32.43
2018-03-14T23:03:26.093Z,32.97
2018-03-14T23:05:53.657Z,32.07
2018-03-14T23:08:21.192Z,33.07
2018-03-14T23:10:48.740Z,31.60
2018-03-14T23:13:16.735Z,32.28
2018-03-14T23:15:44.276Z,32.87
2018-03-14T23:18:11.810Z,31.87
2018-03-14T23:20:39.384Z,31.90
2018-03-14T23:23:07.336Z,30.80
2018-03-14T23:25:34.873Z,31.90
2018-03-14T23:28:03.207Z,32.33
2018-03-14T23:30:30.756Z,28.93
2018-03-14T23:32:58.287Z,30.40
2018-03-14T23:35:26.500Z,29.20
2018-03-14T23:37:54.065Z,29.73
2018-03-14T23:40:21.608Z,31.00
2018-03-14T23:42:49.172Z,29.27
2018-03-14T23:45:16.703Z,29.83
2018-03-14T23:47:44.239Z,30.90
2018-03-14T23:50:11.805Z,29.00
2018-03-14T23:52:39.395Z,30.73
2018-03-14T23:55:07.679Z,29.07
2018-03-14T23:57:35.789Z,31.30
